90  °F
Temperature
32  °C
Temperature
3  °C
 Dewpoint
37  °F
  Dewpoint
16  %
 Humidity
  Temperature
10  mph
Wind Speed
9  kts
Wind Speed
16  km/h
Wind Speed
4.5  m/s
Wind Speed
220°
South West

Wind Speed
Clear
Conditions
Pressure 30.11 (inHG) - 1019.62 (mb)
Visibility 10.0 (mi) - 16.1 (km)
Original CSS/SVG/PHP scripts by weather34.com © 2015-2020

Sky Conditions
KPRC
Location Ernest A Love Field 8 mi (12.87 km)
Metar :KPRC 042353Z 22009KT 10SM CLR 32/03 A3011 RMK AO2 SLP110 T03220033 10333 20294 56018
Sat 4th July 16:53 pm

Nearest Airport
Metar Data Provided by https://www.checkwx.com/weather/KPRC